Atlantic Island — C4VM2 — position and weather

sailwx.info

Track history (hours):
 
Tides and Currents Weather Stations Pressure Air Temp Water Temp Dewpoint Dewpoint Depression Visibility Wind Speed Wind Dir Waves Ship Positions

Atlantic Island

Last reported at 2017-May-23 16:07 UTC. Time now 2017-May-23 17:03 UTC.
Position N 36°38' W 008°43'.

Length 95 m; draft 5.9 m.

Type: Cargo ship. MMSI: 210754000.

Date/timePositionNaut miles runAvg speedWind from/ knotsBaromVisibWave heightAir tempDewpointWater temp
2017-May-23 16:07N 36°38' W 008°43'6 9.7
2017-May-23 15:30N 36°36' W 008°36'5 9.8
2017-May-23 14:58N 36°34' W 008°30'8 9.7
2017-May-23 14:11N 36°32' W 008°21'7 9.8
2017-May-23 13:30N 36°30' W 008°13'5 9.9
2017-May-23 12:58N 36°28' W 008°07'5 9.7
2017-May-23 12:27N 36°27' W 008°01'4 9.9
2017-May-23 12:00N 36°25' W 007°55'510.0
2017-May-23 11:30N 36°24' W 007°50'1210.0
2017-May-23 10:17N 36°20' W 007°35'3 9.9
2017-May-23 10:00N 36°19' W 007°32'94 8.8
2017-May-22 23:21N 35°58' W 005°38'3 9.1
2017-May-22 23:00N 35°58' W 005°35'4 8.6
2017-May-22 22:30N 35°59' W 005°29'4 7.8
2017-May-22 22:00N 35°59' W 005°25'4 8.0
2017-May-22 21:30N 35°56' W 005°21'3 6.4
2017-May-22 21:00N 35°54' W 005°19'0 0.7
2017-May-22 20:30N 35°54' W 005°19'0 0.0
2017-May-22 19:59N 35°54' W 005°19'0 0.0
2017-May-22 19:29N 35°54' W 005°19'0 0.0
2017-May-22 18:59N 35°54' W 005°19'0 0.0
2017-May-22 18:29N 35°54' W 005°19'0 0.0
2017-May-22 17:59N 35°54' W 005°19'0 0.0
2017-May-22 17:29N 35°54' W 005°19'0 0.0
2017-May-22 17:01N 35°54' W 005°19'0 1.0
2017-May-22 16:30N 35°54' W 005°19'1 1.4
2017-May-22 16:01N 35°55' W 005°19'3 5.2
2017-May-22 15:30N 35°56' W 005°16'4 8.6
2017-May-22 15:00N 35°58' W 005°12'223 8.5
2017-May-21 12:53N 37°21' W 000°54'6 9.0
2017-May-21 12:15N 37°25' W 000°49'2 9.0
2017-May-21 12:00N 37°26' W 000°46'5 9.1
2017-May-21 11:27N 37°29' W 000°42'5 9.3
2017-May-21 10:58N 37°32' W 000°37'4 9.2
2017-May-21 10:30N 37°35' W 000°33'5 9.1
2017-May-21 10:00N 37°38' W 000°29'5 9.1
2017-May-21 09:29N 37°41' W 000°24'32 9.1
2017-May-21 05:59N 38°01' E 000°07'6 8.8
2017-May-21 05:20N 38°04' E 000°13'3 9.0
2017-May-21 05:00N 38°06' E 000°16'5 9.1
2017-May-21 04:30N 38°09' E 000°20'5 9.2
2017-May-21 04:01N 38°12' E 000°25'5 9.3
2017-May-21 03:30N 38°15' E 000°29'5 9.0
2017-May-21 03:00N 38°18' E 000°34'4 8.7
2017-May-21 02:31N 38°21' E 000°38'4 8.4
2017-May-21 02:00N 38°24' E 000°42'10 8.4
2017-May-21 00:51N 38°30' E 000°51'3 8.3
2017-May-21 00:30N 38°32' E 000°54'4 8.4
2017-May-21 00:01N 38°34' E 000°58'16 8.7
2017-May-20 22:12N 38°44' E 001°14'2 8.9
2017-May-20 21:57N 38°45' E 001°16'4 8.7
2017-May-20 21:28N 38°48' E 001°21'3 2.3
2017-May-20 20:05N 38°50' E 001°23'0 0.0
2017-May-20 19:58N 38°50' E 001°23'0 0.0
2017-May-20 19:30N 38°50' E 001°23'0 0.0
2017-May-20 19:00N 38°50' E 001°23'0 0.0
2017-May-20 18:30N 38°50' E 001°23'0 0.0
2017-May-20 18:00N 38°50' E 001°23'0 0.0
2017-May-20 17:30N 38°50' E 001°23'0 0.0
2017-May-20 17:00N 38°50' E 001°23'0 0.0
2017-May-20 16:30N 38°50' E 001°23'0 0.0
2017-May-20 16:00N 38°50' E 001°23'0 0.0
2017-May-20 15:30N 38°50' E 001°23'0 0.0
2017-May-20 15:00N 38°50' E 001°23'0 0.0
2017-May-20 14:30N 38°50' E 001°23'0 0.0
2017-May-20 13:30N 38°50' E 001°23'0 0.0
2017-May-20 13:00N 38°50' E 001°23'0 0.0
2017-May-20 12:30N 38°50' E 001°23'0 0.0
2017-May-20 12:00N 38°50' E 001°23'0 0.0
2017-May-20 11:30N 38°50' E 001°23'0 0.0
2017-May-20 11:00N 38°50' E 001°23'0 0.0
2017-May-20 10:30N 38°50' E 001°23'0 0.0
2017-May-20 10:00N 38°50' E 001°23'0 0.0
2017-May-20 09:30N 38°50' E 001°23'0 0.0
2017-May-20 09:00N 38°50' E 001°23'0 0.0
2017-May-20 08:30N 38°50' E 001°23'0 0.0
2017-May-20 08:00N 38°50' E 001°23'0 0.0
2017-May-20 07:30N 38°50' E 001°23'0 0.0
2017-May-20 07:00N 38°50' E 001°23'0 0.0
2017-May-20 06:30N 38°50' E 001°23'0 0.0
2017-May-20 06:00N 38°50' E 001°23'0 1.0
2017-May-20 05:30N 38°50' E 001°23'2 3.6
2017-May-20 05:00N 38°48' E 001°22'1 2.7
2017-May-20 04:30N 38°47' E 001°21'1 2.1
2017-May-20 04:00N 38°47' E 001°20'2 3.1
2017-May-20 03:30N 38°48' E 001°20'85 7.7
2017-May-19 16:29N 39°36' W 000°10'3 0.1
2017-May-17 13:13N 39°39' W 000°13'0 0.0
2017-May-17 12:55N 39°39' W 000°13'0 0.0
2017-May-17 12:25N 39°39' W 000°13'0 0.0
2017-May-17 11:49N 39°39' W 000°13'0 0.0
2017-May-16 23:01N 39°39' W 000°13'0 0.1
2017-May-16 22:55N 39°39' W 000°13'0 0.0
2017-May-16 22:07N 39°39' W 000°13'0 0.0
2017-May-16 21:55N 39°39' W 000°13'0 0.0
2017-May-16 13:19N 39°39' W 000°13'0 0.0
2017-May-16 00:54N 39°39' W 000°13'1 1.0
2017-May-16 00:17N 39°38' W 000°13'2 6.7
2017-May-15 23:54N 39°36' W 000°11'4 9.1
2017-May-15 23:30N 39°33' W 000°08'53 9.1
2017-May-15 17:40N 38°46' E 000°25'10 8.1
2017-May-15 16:27N 38°36' E 000°23'4 8.7
2017-May-15 16:00N 38°33' E 000°20'4 8.7
2017-May-15 15:30N 38°29' E 000°17'4 8.6
2017-May-15 15:00N 38°26' E 000°14'13 9.0
2017-May-15 13:36N 38°15' E 000°05'1 9.3
2017-May-15 13:30N 38°15' E 000°04'5 9.2
2017-May-15 13:00N 38°11' E 000°01'5 9.4
2017-May-15 12:28N 38°07' W 000°02'4 9.3
2017-May-15 11:59N 38°03' W 000°05'5 9.3
2017-May-15 11:30N 37°59' W 000°09'17 9.3
2017-May-15 09:41N 37°45' W 000°21'2 9.4
2017-May-15 09:28N 37°43' W 000°22'4 9.4
2017-May-15 09:00N 37°40' W 000°25'6 9.5
2017-May-15 08:24N 37°35' W 000°29'4 9.4
2017-May-15 07:58N 37°32' W 000°32'10 9.7
2017-May-15 06:58N 37°25' W 000°42'5 9.8
2017-May-15 06:30N 37°22' W 000°46'  
Track history (hours):
 
Tides and Currents Weather Stations Pressure Air Temp Water Temp Dewpoint Dewpoint Depression Visibility Wind Speed Wind Dir Waves Ship Positions

Atlantic Island

Last reported at 2017-May-23 16:07 UTC. Time now 2017-May-23 17:03 UTC.
Position N 36°38' W 008°43'.

Length 95 m; draft 5.9 m.

Type: Cargo ship. MMSI: 210754000.

Date/timePositionNaut miles runAvg speedWind from/ knotsBaromVisibWave heightAir tempDewpointWater temp
2017-May-23 16:07N 36°38' W 008°43'6 9.7
2017-May-23 15:30N 36°36' W 008°36'5 9.8
2017-May-23 14:58N 36°34' W 008°30'8 9.7
2017-May-23 14:11N 36°32' W 008°21'7 9.8
2017-May-23 13:30N 36°30' W 008°13'5 9.9
2017-May-23 12:58N 36°28' W 008°07'5 9.7
2017-May-23 12:27N 36°27' W 008°01'4 9.9
2017-May-23 12:00N 36°25' W 007°55'510.0
2017-May-23 11:30N 36°24' W 007°50'1210.0
2017-May-23 10:17N 36°20' W 007°35'3 9.9
2017-May-23 10:00N 36°19' W 007°32'94 8.8
2017-May-22 23:21N 35°58' W 005°38'3 9.1
2017-May-22 23:00N 35°58' W 005°35'4 8.6
2017-May-22 22:30N 35°59' W 005°29'4 7.8
2017-May-22 22:00N 35°59' W 005°25'4 8.0
2017-May-22 21:30N 35°56' W 005°21'3 6.4
2017-May-22 21:00N 35°54' W 005°19'0 0.7
2017-May-22 20:30N 35°54' W 005°19'0 0.0
2017-May-22 19:59N 35°54' W 005°19'0 0.0
2017-May-22 19:29N 35°54' W 005°19'0 0.0
2017-May-22 18:59N 35°54' W 005°19'0 0.0
2017-May-22 18:29N 35°54' W 005°19'0 0.0
2017-May-22 17:59N 35°54' W 005°19'0 0.0
2017-May-22 17:29N 35°54' W 005°19'0 0.0
2017-May-22 17:01N 35°54' W 005°19'0 1.0
2017-May-22 16:30N 35°54' W 005°19'1 1.4
2017-May-22 16:01N 35°55' W 005°19'3 5.2
2017-May-22 15:30N 35°56' W 005°16'4 8.6
2017-May-22 15:00N 35°58' W 005°12'223 8.5
2017-May-21 12:53N 37°21' W 000°54'6 9.0
2017-May-21 12:15N 37°25' W 000°49'2 9.0
2017-May-21 12:00N 37°26' W 000°46'5 9.1
2017-May-21 11:27N 37°29' W 000°42'5 9.3
2017-May-21 10:58N 37°32' W 000°37'4 9.2
2017-May-21 10:30N 37°35' W 000°33'5 9.1
2017-May-21 10:00N 37°38' W 000°29'5 9.1
2017-May-21 09:29N 37°41' W 000°24'32 9.1
2017-May-21 05:59N 38°01' E 000°07'6 8.8
2017-May-21 05:20N 38°04' E 000°13'3 9.0
2017-May-21 05:00N 38°06' E 000°16'5 9.1
2017-May-21 04:30N 38°09' E 000°20'5 9.2
2017-May-21 04:01N 38°12' E 000°25'5 9.3
2017-May-21 03:30N 38°15' E 000°29'5 9.0
2017-May-21 03:00N 38°18' E 000°34'4 8.7
2017-May-21 02:31N 38°21' E 000°38'4 8.4
2017-May-21 02:00N 38°24' E 000°42'10 8.4
2017-May-21 00:51N 38°30' E 000°51'3 8.3
2017-May-21 00:30N 38°32' E 000°54'4 8.4
2017-May-21 00:01N 38°34' E 000°58'16 8.7
2017-May-20 22:12N 38°44' E 001°14'2 8.9
2017-May-20 21:57N 38°45' E 001°16'4 8.7
2017-May-20 21:28N 38°48' E 001°21'3 2.3
2017-May-20 20:05N 38°50' E 001°23'0 0.0
2017-May-20 19:58N 38°50' E 001°23'0 0.0
2017-May-20 19:30N 38°50' E 001°23'0 0.0
2017-May-20 19:00N 38°50' E 001°23'0 0.0
2017-May-20 18:30N 38°50' E 001°23'0 0.0
2017-May-20 18:00N 38°50' E 001°23'0 0.0
2017-May-20 17:30N 38°50' E 001°23'0 0.0
2017-May-20 17:00N 38°50' E 001°23'0 0.0
2017-May-20 16:30N 38°50' E 001°23'0 0.0
2017-May-20 16:00N 38°50' E 001°23'0 0.0
2017-May-20 15:30N 38°50' E 001°23'0 0.0
2017-May-20 15:00N 38°50' E 001°23'0 0.0
2017-May-20 14:30N 38°50' E 001°23'0 0.0
2017-May-20 13:30N 38°50' E 001°23'0 0.0
2017-May-20 13:00N 38°50' E 001°23'0 0.0
2017-May-20 12:30N 38°50' E 001°23'0 0.0
2017-May-20 12:00N 38°50' E 001°23'0 0.0
2017-May-20 11:30N 38°50' E 001°23'0 0.0
2017-May-20 11:00N 38°50' E 001°23'0 0.0
2017-May-20 10:30N 38°50' E 001°23'0 0.0
2017-May-20 10:00N 38°50' E 001°23'0 0.0
2017-May-20 09:30N 38°50' E 001°23'0 0.0
2017-May-20 09:00N 38°50' E 001°23'0 0.0
2017-May-20 08:30N 38°50' E 001°23'0 0.0
2017-May-20 08:00N 38°50' E 001°23'0 0.0
2017-May-20 07:30N 38°50' E 001°23'0 0.0
2017-May-20 07:00N 38°50' E 001°23'0 0.0
2017-May-20 06:30N 38°50' E 001°23'0 0.0
2017-May-20 06:00N 38°50' E 001°23'0 1.0
2017-May-20 05:30N 38°50' E 001°23'2 3.6
2017-May-20 05:00N 38°48' E 001°22'1 2.7
2017-May-20 04:30N 38°47' E 001°21'1 2.1
2017-May-20 04:00N 38°47' E 001°20'2 3.1
2017-May-20 03:30N 38°48' E 001°20'85 7.7
2017-May-19 16:29N 39°36' W 000°10'3 0.1
2017-May-17 13:13N 39°39' W 000°13'0 0.0
2017-May-17 12:55N 39°39' W 000°13'0 0.0
2017-May-17 12:25N 39°39' W 000°13'0 0.0
2017-May-17 11:49N 39°39' W 000°13'0 0.0
2017-May-16 23:01N 39°39' W 000°13'0 0.1
2017-May-16 22:55N 39°39' W 000°13'0 0.0
2017-May-16 22:07N 39°39' W 000°13'0 0.0
2017-May-16 21:55N 39°39' W 000°13'0 0.0
2017-May-16 13:19N 39°39' W 000°13'0 0.0
2017-May-16 00:54N 39°39' W 000°13'1 1.0
2017-May-16 00:17N 39°38' W 000°13'2 6.7
2017-May-15 23:54N 39°36' W 000°11'4 9.1
2017-May-15 23:30N 39°33' W 000°08'53 9.1
2017-May-15 17:40N 38°46' E 000°25'10 8.1
2017-May-15 16:27N 38°36' E 000°23'4 8.7
2017-May-15 16:00N 38°33' E 000°20'4 8.7
2017-May-15 15:30N 38°29' E 000°17'4 8.6
2017-May-15 15:00N 38°26' E 000°14'13 9.0
2017-May-15 13:36N 38°15' E 000°05'1 9.3
2017-May-15 13:30N 38°15' E 000°04'5 9.2
2017-May-15 13:00N 38°11' E 000°01'5 9.4
2017-May-15 12:28N 38°07' W 000°02'4 9.3
2017-May-15 11:59N 38°03' W 000°05'5 9.3
2017-May-15 11:30N 37°59' W 000°09'17 9.3
2017-May-15 09:41N 37°45' W 000°21'2 9.4
2017-May-15 09:28N 37°43' W 000°22'4 9.4
2017-May-15 09:00N 37°40' W 000°25'6 9.5
2017-May-15 08:24N 37°35' W 000°29'4 9.4
2017-May-15 07:58N 37°32' W 000°32'10 9.7
2017-May-15 06:58N 37°25' W 000°42'5 9.8
2017-May-15 06:30N 37°22' W 000°46'  

Dump ship's entire track history